Time;durP1;ratioP1;P1;durP2;ratioP2;P2;SDS_P1;SDS_P2;PMS_P1;PMS_P2;Temp;Humidity;BMP_temperature;BMP_pressure;BME280_temperature;BME280_humidity;BME280_pressure;Samples;Min_cycle;Max_cycle;Signal;HPM_P1;HPM_P2
2022/04/24 02:44:12;;;;;;;;;;;8.80;99.50;;;;;;6226873;22;19951;-82
2022/04/24 04:46:25;;;;;;;;;;;8.80;99.00;;;;;;6190388;23;19931;-81
2022/04/24 04:49:23;;;;;;;;;;;8.90;98.60;;;;;;6156199;23;19919;-82
2022/04/24 04:52:29;;;;;;;;;;;10.30;98.80;;;;;;6156996;23;19940;-80
2022/04/24 04:55:11;;;;;;;;;;;8.30;97.90;;;;;;6182529;23;19919;-80
2022/04/24 05:18:52;;;;;;;;;;;9.60;97.60;;;;;;6208744;23;19920;-83
2022/04/24 05:26:41;;;;;;;;;;;9.90;97.30;;;;;;6202632;23;19908;-83
2022/04/24 05:29:14;;;;;;;;;;;9.30;96.70;;;;;;6167199;23;19948;-84
2022/04/24 05:32:30;;;;;;;;;;;10.60;97.30;;;;;;6127957;23;19936;-84
2022/04/24 05:37:53;;;;;;;;;;;10.40;96.60;;;;;;6180410;23;19927;-86
2022/04/24 05:40:53;;;;;;;;;;;8.90;96.40;;;;;;6177539;23;19905;-81
2022/04/24 06:21:38;;;;;;;;;;;11.40;93.70;;;;;;6184044;23;20391;-90
2022/04/24 07:43:06;;;;;;;;;;;18.20;60.80;;;;;;6170122;23;21747;-82
2022/04/24 08:15:21;;;;;;;;;;;20.00;56.60;;;;;;6156593;23;19928;-87
2022/04/24 08:32:12;;;;;;;;;;;21.20;53.50;;;;;;6156165;23;19916;-93
2022/04/24 08:37:47;;;;;;;;;;;21.50;53.70;;;;;;6180161;22;20360;-88
2022/04/24 08:40:48;;;;;;;;;;;19.00;52.90;;;;;;6147058;23;20090;-88
2022/04/24 08:43:15;;;;;;;;;;;20.30;53.00;;;;;;6170680;23;19911;-85
2022/04/24 08:45:49;;;;;;;;;;;20.80;54.00;;;;;;6170489;23;19916;-88
2022/04/24 08:48:24;;;;;;;;;;;20.30;53.50;;;;;;6146710;23;20522;-87
2022/04/24 09:04:42;;;;;;;;;;;20.80;53.80;;;;;;6172841;23;19923;-91
2022/04/24 09:07:09;;;;;;;;;;;19.90;53.40;;;;;;6146400;23;19904;-86
2022/04/24 09:09:42;;;;;;;;;;;19.60;53.40;;;;;;6172610;23;19962;-91
2022/04/24 09:12:10;;;;;;;;;;;19.80;53.40;;;;;;6146439;23;19936;-90
2022/04/24 09:20:16;;;;;;;;;;;19.60;52.70;;;;;;6172464;23;19920;-91
2022/04/24 09:23:07;;;;;;;;;;;21.10;53.00;;;;;;6174287;23;20237;-89
2022/04/24 09:25:39;;;;;;;;;;;19.10;52.40;;;;;;6168654;23;19919;-83
2022/04/24 09:42:14;;;;;;;;;;;20.00;53.00;;;;;;6157889;23;19924;-89
2022/04/24 09:44:52;;;;;;;;;;;20.10;51.70;;;;;;6201862;23;19920;-91
2022/04/24 09:47:23;;;;;;;;;;;22.10;53.20;;;;;;6171276;23;19931;-89
2022/04/24 09:49:54;;;;;;;;;;;20.30;51.10;;;;;;6147272;23;19908;-91
2022/04/24 09:52:22;;;;;;;;;;;20.40;51.10;;;;;;6145982;23;19904;-92
2022/04/24 10:02:56;;;;;;;;;;;23.30;51.20;;;;;;6128779;22;19939;-82
2022/04/24 10:08:34;;;;;;;;;;;21.10;49.60;;;;;;6077290;23;20531;-83
2022/04/24 10:11:05;;;;;;;;;;;21.10;50.10;;;;;;6062300;23;19996;-90
2022/04/24 10:13:50;;;;;;;;;;;19.60;47.40;;;;;;6089502;23;19913;-89
2022/04/24 10:16:34;;;;;;;;;;;21.80;49.50;;;;;;6072667;23;19910;-92
2022/04/24 10:19:25;;;;;;;;;;;21.60;48.20;;;;;;6092003;23;19920;-89
2022/04/24 10:24:22;;;;;;;;;;;21.20;48.50;;;;;;6179226;23;19920;-89
2022/04/24 10:32:48;;;;;;;;;;;23.40;49.80;;;;;;6181617;23;20050;-86
2022/04/24 11:06:00;;;;;;;;;;;20.70;50.70;;;;;;6174132;23;19931;-89
2022/04/24 11:08:25;;;;;;;;;;;21.20;50.60;;;;;;6126869;23;19920;-87
2022/04/24 11:10:51;;;;;;;;;;;20.60;51.30;;;;;;6178614;23;19900;-91
2022/04/24 11:13:17;;;;;;;;;;;20.50;51.50;;;;;;6151758;23;19900;-92
2022/04/24 11:15:50;;;;;;;;;;;20.20;51.70;;;;;;6175171;23;19920;-90
2022/04/24 11:18:23;;;;;;;;;;;20.10;51.80;;;;;;6149032;23;20416;-88
2022/04/24 11:21:05;;;;;;;;;;;20.10;52.80;;;;;;6150017;23;19905;-92
2022/04/24 11:23:46;;;;;;;;;;;21.30;54.40;;;;;;6175621;23;19967;-90
2022/04/24 11:26:16;;;;;;;;;;;20.10;55.10;;;;;;6175187;23;20363;-86
2022/04/24 11:28:54;;;;;;;;;;;19.90;56.20;;;;;;6148022;23;19908;-91
2022/04/24 11:34:31;;;;;;;;;;;19.40;55.80;;;;;;6176115;22;19931;-90
2022/04/24 11:51:20;;;;;;;;;;;22.40;52.20;;;;;;6172014;23;19911;-87
2022/04/24 11:53:49;;;;;;;;;;;22.20;49.90;;;;;;6145370;23;19979;-88
2022/04/24 11:56:15;;;;;;;;;;;22.00;50.70;;;;;;6175014;23;19910;-91
2022/04/24 11:58:43;;;;;;;;;;;22.10;49.00;;;;;;6181602;23;19932;-89
2022/04/24 12:01:10;;;;;;;;;;;22.10;49.50;;;;;;6173096;23;20444;-91
2022/04/24 12:03:54;;;;;;;;;;;22.30;48.60;;;;;;6199922;23;19896;-91
2022/04/24 12:06:51;;;;;;;;;;;22.30;48.40;;;;;;6173397;23;20000;-90
2022/04/24 12:16:06;;;;;;;;;;;22.10;48.10;;;;;;6044297;23;19953;-86
2022/04/24 12:18:55;;;;;;;;;;;22.80;49.00;;;;;;6045352;23;19930;-83
2022/04/24 12:24:33;;;;;;;;;;;23.20;47.50;;;;;;5936724;24;19947;-89
2022/04/24 12:27:09;;;;;;;;;;;21.20;47.10;;;;;;5913142;24;19931;-91
2022/04/24 12:30:06;;;;;;;;;;;20.70;47.20;;;;;;5933199;24;19896;-88
2022/04/24 12:32:34;;;;;;;;;;;23.00;48.20;;;;;;5925126;23;19915;-88
2022/04/24 12:35:06;;;;;;;;;;;21.50;49.20;;;;;;5925312;24;19961;-91
2022/04/24 12:37:47;;;;;;;;;;;23.20;49.60;;;;;;6013451;23;19942;-90
2022/04/24 12:40:24;;;;;;;;;;;23.00;47.10;;;;;;6191954;23;19911;-90
2022/04/24 12:42:53;;;;;;;;;;;22.60;45.50;;;;;;6219697;23;19900;-87
2022/04/24 12:45:20;;;;;;;;;;;23.40;44.50;;;;;;6193079;23;19919;-85
2022/04/24 12:47:47;;;;;;;;;;;23.60;44.00;;;;;;6194309;23;19931;-87
2022/04/24 12:50:14;;;;;;;;;;;24.20;44.20;;;;;;6191663;23;20224;-88
2022/04/24 12:52:43;;;;;;;;;;;24.70;42.80;;;;;;6215518;23;19983;-89
2022/04/24 12:55:20;;;;;;;;;;;25.00;42.50;;;;;;6214089;23;20263;-88
2022/04/24 12:57:49;;;;;;;;;;;25.40;41.00;;;;;;6187122;23;19908;-84
2022/04/24 13:00:15;;;;;;;;;;;25.30;41.90;;;;;;6183601;23;19947;-84
2022/04/24 13:02:42;;;;;;;;;;;25.30;40.80;;;;;;6184316;23;19904;-89
2022/04/24 13:05:08;;;;;;;;;;;25.50;41.20;;;;;;6189025;23;19916;-81
2022/04/24 13:07:39;;;;;;;;;;;24.80;41.10;;;;;;6183244;23;20592;-82
2022/04/24 13:10:05;;;;;;;;;;;24.40;41.90;;;;;;6209543;23;19904;-88
2022/04/24 13:12:31;;;;;;;;;;;25.00;41.60;;;;;;6179205;23;19911;-86
2022/04/24 13:14:56;;;;;;;;;;;25.30;41.10;;;;;;6111771;23;19944;-89
2022/04/24 13:20:46;;;;;;;;;;;26.10;38.90;;;;;;6109995;23;19908;-85
2022/04/24 13:23:27;;;;;;;;;;;26.40;39.40;;;;;;6110335;23;19940;-88
2022/04/24 13:25:54;;;;;;;;;;;27.10;39.70;;;;;;6085704;23;19949;-87
2022/04/24 13:28:21;;;;;;;;;;;25.00;39.70;;;;;;6099142;23;19912;-85
2022/04/24 13:30:52;;;;;;;;;;;24.70;40.50;;;;;;6101582;23;20127;-85
2022/04/24 13:33:30;;;;;;;;;;;26.30;41.70;;;;;;6104677;23;19955;-86
2022/04/24 13:44:10;;;;;;;;;;;25.20;39.40;;;;;;6175495;23;19927;-86
2022/04/24 13:46:37;;;;;;;;;;;24.80;39.80;;;;;;6010660;23;3794384;-85
2022/04/24 13:53:04;;;;;;;;;;;26.10;40.80;;;;;;6171359;23;20016;-89
2022/04/24 13:55:33;;;;;;;;;;;22.80;40.20;;;;;;6145029;23;19915;-88
2022/04/24 14:01:31;;;;;;;;;;;24.50;40.00;;;;;;6138165;23;20430;-85
2022/04/24 14:04:30;;;;;;;;;;;22.30;38.90;;;;;;6113751;23;19904;-87
2022/04/24 14:07:18;;;;;;;;;;;25.00;38.40;;;;;;6113525;23;19913;-85
2022/04/24 14:09:43;;;;;;;;;;;25.80;37.90;;;;;;6131270;23;19927;-87
2022/04/24 14:20:44;;;;;;;;;;;27.90;38.50;;;;;;6171400;23;20422;-90
2022/04/24 14:23:32;;;;;;;;;;;27.30;38.10;;;;;;6175208;23;20316;-89
2022/04/24 14:26:26;;;;;;;;;;;27.20;37.60;;;;;;6145082;23;19967;-86
2022/04/24 14:29:02;;;;;;;;;;;27.40;37.10;;;;;;6171774;23;19991;-88
2022/04/24 14:31:43;;;;;;;;;;;29.70;37.70;;;;;;6171060;23;19900;-90
2022/04/24 14:34:24;;;;;;;;;;;26.20;35.80;;;;;;6145036;23;20550;-86
2022/04/24 14:36:50;;;;;;;;;;;26.30;37.80;;;;;;6108436;23;19991;-87
2022/04/24 14:42:07;;;;;;;;;;;25.30;37.80;;;;;;6171371;23;19946;-88
2022/04/24 14:44:47;;;;;;;;;;;25.80;37.40;;;;;;6143656;23;20462;-85
2022/04/24 14:56:15;;;;;;;;;;;26.40;36.40;;;;;;6111101;23;19996;-88
2022/04/24 14:58:42;;;;;;;;;;;27.60;38.10;;;;;;6109587;23;19913;-84
2022/04/24 15:01:19;;;;;;;;;;;25.60;37.10;;;;;;6109995;23;19968;-89
2022/04/24 15:03:56;;;;;;;;;;;26.20;37.30;;;;;;6108223;23;19905;-83
2022/04/24 15:06:22;;;;;;;;;;;25.60;37.50;;;;;;6083986;23;19923;-85
2022/04/24 15:08:48;;;;;;;;;;;26.10;37.70;;;;;;6107458;23;20537;-84
2022/04/24 15:11:13;;;;;;;;;;;26.70;36.70;;;;;;6083117;23;19908;-89
2022/04/24 15:13:39;;;;;;;;;;;26.60;36.30;;;;;;6083676;23;19939;-86
2022/04/24 15:16:05;;;;;;;;;;;26.70;36.00;;;;;;6083580;23;19905;-86
2022/04/24 15:18:31;;;;;;;;;;;26.70;36.30;;;;;;6119257;23;19912;-90
2022/04/24 15:20:56;;;;;;;;;;;26.60;36.20;;;;;;6149197;23;19904;-86
2022/04/24 15:23:23;;;;;;;;;;;26.60;36.10;;;;;;6179115;23;19924;-87
2022/04/24 15:25:49;;;;;;;;;;;26.40;36.40;;;;;;6181582;23;19923;-88
2022/04/24 15:28:15;;;;;;;;;;;26.40;36.70;;;;;;6155881;23;20224;-84
2022/04/24 15:30:40;;;;;;;;;;;26.70;36.90;;;;;;6153517;23;20303;-88
2022/04/24 15:33:06;;;;;;;;;;;26.50;36.80;;;;;;6152970;23;19939;-87
2022/04/24 15:35:33;;;;;;;;;;;26.60;36.90;;;;;;6165292;23;19968;-84
2022/04/24 15:37:58;;;;;;;;;;;26.20;38.10;;;;;;6178112;23;19915;-86
2022/04/24 15:40:24;;;;;;;;;;;26.80;38.70;;;;;;6176803;23;19915;-82
2022/04/24 15:42:56;;;;;;;;;;;30.20;39.90;;;;;;6206806;23;19916;-86
2022/04/24 15:46:11;;;;;;;;;;;26.40;37.10;;;;;;6203318;23;19995;-85
2022/04/24 15:48:12;;;;;;;;;;;26.60;36.90;;;;;;6183655;23;19904;-90
2022/04/24 15:51:08;;;;;;;;;;;26.70;36.80;;;;;;6180325;23;19988;-94
2022/04/24 15:53:43;;;;;;;;;;;26.80;36.60;;;;;;6179269;23;19903;-91
2022/04/24 15:56:15;;;;;;;;;;;24.50;35.40;;;;;;6203451;23;19973;-85
2022/04/24 15:58:59;;;;;;;;;;;27.10;37.10;;;;;;6155656;23;19999;-90
2022/04/24 16:02:16;;;;;;;;;;;27.60;37.00;;;;;;6173689;23;19928;-89
2022/04/24 16:04:46;;;;;;;;;;;27.70;37.10;;;;;;6166898;23;20086;-88
2022/04/24 16:07:27;;;;;;;;;;;26.00;36.20;;;;;;6181122;23;19931;-85
2022/04/24 16:10:00;;;;;;;;;;;27.90;38.00;;;;;;6117198;23;19937;-90
2022/04/24 16:12:35;;;;;;;;;;;28.00;38.60;;;;;;6144437;23;19905;-89
2022/04/24 16:15:16;;;;;;;;;;;26.20;37.20;;;;;;6142842;23;20087;-87
2022/04/24 16:17:46;;;;;;;;;;;25.80;38.30;;;;;;6145668;23;19905;-88
2022/04/24 16:20:24;;;;;;;;;;;25.70;38.40;;;;;;6157698;23;19969;-84
2022/04/24 16:22:53;;;;;;;;;;;25.50;38.60;;;;;;6155272;23;19919;-89
2022/04/24 16:25:49;;;;;;;;;;;25.00;38.60;;;;;;6160699;23;19908;-85
2022/04/24 16:28:34;;;;;;;;;;;24.70;39.00;;;;;;6156814;23;20134;-90
2022/04/24 16:31:12;;;;;;;;;;;24.80;40.10;;;;;;6191595;23;19932;-90
2022/04/24 16:33:49;;;;;;;;;;;23.90;40.20;;;;;;6163779;23;20506;-90
2022/04/24 16:36:18;;;;;;;;;;;24.20;40.60;;;;;;6186355;23;20481;-88
2022/04/24 16:38:52;;;;;;;;;;;23.80;40.80;;;;;;6154412;23;19905;-88
2022/04/24 16:41:32;;;;;;;;;;;24.70;41.60;;;;;;6121532;23;19908;-87
2022/04/24 16:44:08;;;;;;;;;;;23.60;41.00;;;;;;6143367;23;19905;-89
2022/04/24 16:46:41;;;;;;;;;;;23.10;41.90;;;;;;6126742;23;19900;-84
2022/04/24 16:49:07;;;;;;;;;;;22.40;43.50;;;;;;6165678;23;19940;-92
2022/04/24 16:59:46;;;;;;;;;;;21.20;46.20;;;;;;6186720;23;20299;-89
2022/04/24 17:02:13;;;;;;;;;;;20.40;46.70;;;;;;6152262;23;19905;-89
2022/04/24 17:04:41;;;;;;;;;;;17.60;45.60;;;;;;6157922;23;19967;-91
2022/04/24 17:07:07;;;;;;;;;;;19.30;47.70;;;;;;6173924;23;19963;-83
2022/04/24 17:09:44;;;;;;;;;;;19.30;47.80;;;;;;6174312;23;19959;-91
2022/04/24 17:12:24;;;;;;;;;;;19.10;48.40;;;;;;6172684;23;19908;-82
2022/04/24 17:14:51;;;;;;;;;;;19.00;48.60;;;;;;6171797;23;19904;-88
2022/04/24 17:17:26;;;;;;;;;;;18.70;49.80;;;;;;6196917;23;20130;-91
2022/04/24 17:20:02;;;;;;;;;;;18.60;49.70;;;;;;6173532;23;19908;-86
2022/04/24 17:22:43;;;;;;;;;;;18.80;50.50;;;;;;6173907;23;19928;-91
2022/04/24 17:25:08;;;;;;;;;;;20.20;51.30;;;;;;6196719;23;19936;-87
2022/04/24 17:27:34;;;;;;;;;;;18.30;51.80;;;;;;6173478;23;19904;-85
2022/04/24 17:29:59;;;;;;;;;;;18.20;51.30;;;;;;6196772;23;19904;-86
2022/04/24 17:32:29;;;;;;;;;;;18.00;51.10;;;;;;6199713;23;19908;-89
2022/04/24 17:34:58;;;;;;;;;;;18.00;51.80;;;;;;6205318;23;19912;-81
2022/04/24 17:37:24;;;;;;;;;;;17.90;51.30;;;;;;6182048;23;19943;-85
2022/04/24 17:39:55;;;;;;;;;;;17.80;51.50;;;;;;6178500;23;20399;-87
2022/04/24 17:42:25;;;;;;;;;;;17.70;51.90;;;;;;6199187;23;20323;-92
2022/04/24 17:44:52;;;;;;;;;;;17.70;52.20;;;;;;6171962;23;19920;-91
2022/04/24 17:47:17;;;;;;;;;;;17.60;51.80;;;;;;6174596;23;20341;-90
2022/04/24 17:49:44;;;;;;;;;;;17.50;52.10;;;;;;6172070;23;19980;-89
2022/04/24 17:52:11;;;;;;;;;;;17.40;52.80;;;;;;6173866;23;19904;-91
2022/04/24 17:54:38;;;;;;;;;;;17.40;53.00;;;;;;6197018;23;20024;-92
2022/04/24 17:57:18;;;;;;;;;;;17.40;53.10;;;;;;6172760;23;20098;-90
2022/04/24 17:59:47;;;;;;;;;;;17.40;53.70;;;;;;6174031;23;19919;-89
2022/04/24 18:02:22;;;;;;;;;;;16.30;54.00;;;;;;6171794;23;20232;-91
2022/04/24 18:04:48;;;;;;;;;;;17.10;54.70;;;;;;6171366;23;20018;-88
2022/04/24 18:07:14;;;;;;;;;;;17.30;55.80;;;;;;6174216;23;19998;-90
2022/04/24 18:09:39;;;;;;;;;;;16.90;54.20;;;;;;6172483;23;19911;-80
2022/04/24 18:12:08;;;;;;;;;;;16.90;55.40;;;;;;6198730;23;19905;-89
2022/04/24 18:14:34;;;;;;;;;;;16.90;55.70;;;;;;6173566;23;19916;-91
2022/04/24 18:16:59;;;;;;;;;;;16.80;56.80;;;;;;6173140;23;20335;-89
2022/04/24 18:19:25;;;;;;;;;;;16.60;56.80;;;;;;6172768;23;20526;-89
2022/04/24 18:21:50;;;;;;;;;;;16.60;55.90;;;;;;6173413;23;20459;-84
2022/04/24 18:24:17;;;;;;;;;;;16.50;55.90;;;;;;6173362;23;20004;-90
2022/04/24 18:26:42;;;;;;;;;;;16.50;55.30;;;;;;6170326;23;20173;-91
2022/04/24 18:29:17;;;;;;;;;;;16.40;56.10;;;;;;6173916;23;20279;-90
2022/04/24 18:31:49;;;;;;;;;;;15.80;56.10;;;;;;6196971;23;19904;-91
2022/04/24 18:34:15;;;;;;;;;;;16.70;57.40;;;;;;6172947;23;19904;-88
2022/04/24 18:39:26;;;;;;;;;;;16.30;55.90;;;;;;6172505;23;20012;-89
2022/04/24 18:41:52;;;;;;;;;;;16.30;56.50;;;;;;6195794;23;20198;-90
2022/04/24 18:44:43;;;;;;;;;;;16.30;56.00;;;;;;6172619;23;20337;-84
2022/04/24 18:47:25;;;;;;;;;;;19.10;58.30;;;;;;6028751;23;20515;-85
2022/04/24 18:50:04;;;;;;;;;;;16.10;57.10;;;;;;6053827;23;19910;-90
2022/04/24 18:52:36;;;;;;;;;;;16.60;56.60;;;;;;6053794;23;19937;-88
2022/04/24 18:55:02;;;;;;;;;;;16.20;56.40;;;;;;6053353;23;19914;-86
2022/04/24 18:57:46;;;;;;;;;;;16.10;57.70;;;;;;6053422;23;19965;-89
2022/04/24 19:00:13;;;;;;;;;;;14.40;57.10;;;;;;6052328;23;19992;-89
2022/04/24 19:02:39;;;;;;;;;;;16.50;60.10;;;;;;6052600;23;20481;-91
2022/04/24 19:13:50;;;;;;;;;;;13.60;58.00;;;;;;6173276;23;20202;-88
2022/04/24 19:16:16;;;;;;;;;;;16.20;59.80;;;;;;6175868;23;19904;-88
2022/04/24 19:18:48;;;;;;;;;;;15.90;58.80;;;;;;6147858;23;19934;-85
2022/04/24 19:21:14;;;;;;;;;;;16.20;58.60;;;;;;6127486;23;20581;-85
2022/04/24 19:23:40;;;;;;;;;;;16.30;58.30;;;;;;6176111;23;19904;-84
2022/04/24 19:26:06;;;;;;;;;;;16.40;58.40;;;;;;6151024;23;20363;-90
2022/04/24 19:28:36;;;;;;;;;;;16.50;58.60;;;;;;6150733;23;19904;-90
2022/04/24 19:31:03;;;;;;;;;;;16.40;58.50;;;;;;6158975;23;19931;-89
2022/04/24 19:33:42;;;;;;;;;;;17.00;58.70;;;;;;6171003;23;20248;-86
2022/04/24 19:36:23;;;;;;;;;;;16.60;58.90;;;;;;6170229;23;19904;-91
2022/04/24 19:39:02;;;;;;;;;;;15.90;57.80;;;;;;6172980;23;19973;-89
2022/04/24 19:41:37;;;;;;;;;;;16.50;58.20;;;;;;6131191;23;19920;-83
2022/04/24 19:44:15;;;;;;;;;;;16.80;58.70;;;;;;6132262;23;19923;-91
2022/04/24 19:46:53;;;;;;;;;;;16.70;59.00;;;;;;6157037;23;20125;-83
2022/04/24 19:49:22;;;;;;;;;;;17.90;60.30;;;;;;6193581;23;19915;-87
2022/04/24 19:52:03;;;;;;;;;;;16.40;58.30;;;;;;6182399;23;19903;-92
2022/04/24 19:54:43;;;;;;;;;;;16.40;58.40;;;;;;6207532;23;19908;-88
2022/04/24 19:57:10;;;;;;;;;;;16.40;58.00;;;;;;6178276;23;20089;-85
2022/04/24 19:59:40;;;;;;;;;;;16.40;57.50;;;;;;6210287;23;19915;-91
2022/04/24 20:02:09;;;;;;;;;;;16.50;57.90;;;;;;6208825;23;20336;-89
2022/04/24 20:04:39;;;;;;;;;;;16.50;57.80;;;;;;6207247;23;19970;-90
2022/04/24 20:07:13;;;;;;;;;;;16.50;57.90;;;;;;6204134;23;20407;-90
2022/04/24 20:09:51;;;;;;;;;;;16.50;57.80;;;;;;6176169;23;19928;-85
2022/04/24 20:12:26;;;;;;;;;;;16.40;57.80;;;;;;6175793;23;19920;-91
2022/04/24 20:15:04;;;;;;;;;;;15.40;56.90;;;;;;6204105;23;19904;-89
2022/04/24 20:17:30;;;;;;;;;;;15.10;56.80;;;;;;6176841;23;19995;-88
2022/04/24 20:20:10;;;;;;;;;;;16.50;57.90;;;;;;6179551;23;19916;-86
2022/04/24 20:33:21;;;;;;;;;;;17.00;58.50;;;;;;6172639;23;19927;-82
2022/04/24 20:35:56;;;;;;;;;;;14.70;57.60;;;;;;6172104;23;20126;-83
2022/04/24 20:38:24;;;;;;;;;;;14.60;57.60;;;;;;6171835;23;19901;-80
2022/04/24 20:41:02;;;;;;;;;;;16.50;60.20;;;;;;6172950;23;19911;-91
2022/04/24 20:43:31;;;;;;;;;;;16.60;58.30;;;;;;6147429;23;20541;-89
2022/04/24 20:46:03;;;;;;;;;;;18.40;59.70;;;;;;6145567;23;19915;-91
2022/04/24 20:49:00;;;;;;;;;;;16.90;58.50;;;;;;6174070;23;20359;-90
2022/04/24 20:56:48;;;;;;;;;;;15.90;58.70;;;;;;6171128;23;20006;-85
2022/04/24 20:59:14;;;;;;;;;;;15.90;59.30;;;;;;6176035;23;19904;-91
2022/04/24 21:01:44;;;;;;;;;;;15.90;59.30;;;;;;6111657;23;20043;-90
2022/04/24 21:04:13;;;;;;;;;;;16.40;59.60;;;;;;6086777;23;19909;-86
2022/04/24 21:06:44;;;;;;;;;;;17.20;59.70;;;;;;6088968;23;19920;-80
2022/04/24 21:09:11;;;;;;;;;;;15.60;59.00;;;;;;6084388;23;19905;-90
2022/04/24 21:11:44;;;;;;;;;;;16.00;58.90;;;;;;6111750;23;19945;-87
2022/04/24 21:14:11;;;;;;;;;;;16.00;58.80;;;;;;6084115;23;19936;-91
2022/04/24 21:16:42;;;;;;;;;;;16.00;59.50;;;;;;6086775;23;20682;-89
2022/04/24 21:22:15;;;;;;;;;;;14.40;57.70;;;;;;6111077;23;20447;-91
2022/04/24 21:25:09;;;;;;;;;;;;;;;;;;;;;
2022/04/24 21:28:04;;;;;;;;;;;16.60;58.70;;;;;;6135111;23;19920;-89
2022/04/24 21:30:39;;;;;;;;;;;15.70;59.80;;;;;;6024142;23;19945;-90
2022/04/24 21:33:05;;;;;;;;;;;17.00;58.60;;;;;;6034893;23;19906;-89
2022/04/24 21:35:46;;;;;;;;;;;17.10;59.90;;;;;;6029180;23;19997;-90
2022/04/24 21:38:18;;;;;;;;;;;16.80;59.00;;;;;;6033304;23;19993;-91
2022/04/24 21:44:11;;;;;;;;;;;17.30;58.70;;;;;;6050281;23;20062;-88
2022/04/24 21:46:37;;;;;;;;;;;17.00;58.80;;;;;;6050514;23;19918;-89
2022/04/24 21:49:06;;;;;;;;;;;16.10;59.10;;;;;;6028896;23;20305;-89
2022/04/24 21:51:37;;;;;;;;;;;17.60;58.70;;;;;;6023752;23;19918;-91
2022/04/24 21:54:03;;;;;;;;;;;17.40;59.20;;;;;;6024203;23;20333;-91
2022/04/24 21:56:38;;;;;;;;;;;16.10;58.50;;;;;;6022799;23;19979;-89
2022/04/24 21:59:22;;;;;;;;;;;16.30;58.40;;;;;;6021999;23;20200;-91
2022/04/24 22:04:33;;;;;;;;;;;16.00;58.80;;;;;;6021643;23;19916;-84
2022/04/24 22:07:04;;;;;;;;;;;15.90;58.80;;;;;;6019272;23;19913;-87
2022/04/24 22:12:28;;;;;;;;;;;15.90;59.10;;;;;;6175012;22;19927;-86
2022/04/24 22:17:26;;;;;;;;;;;15.90;59.00;;;;;;6174385;23;20125;-88
2022/04/24 22:20:03;;;;;;;;;;;12.50;56.30;;;;;;6147016;23;20106;-85
2022/04/24 22:25:31;;;;;;;;;;;16.10;58.50;;;;;;6173825;23;20346;-85
2022/04/24 22:27:57;;;;;;;;;;;15.90;59.20;;;;;;6148676;23;19904;-86
2022/04/24 22:30:25;;;;;;;;;;;15.80;58.30;;;;;;6146908;23;19970;-87
2022/04/24 22:32:51;;;;;;;;;;;15.80;59.30;;;;;;6145741;23;19904;-86
2022/04/24 22:35:40;;;;;;;;;;;15.70;58.20;;;;;;6165402;23;20273;-89
2022/04/24 22:44:43;;;;;;;;;;;15.70;58.30;;;;;;6069794;23;20230;-90
2022/04/24 22:47:28;;;;;;;;;;;16.00;58.50;;;;;;6145110;23;19916;-90
2022/04/24 22:49:54;;;;;;;;;;;15.60;58.20;;;;;;6171603;23;19947;-88
2022/04/24 22:52:19;;;;;;;;;;;15.50;59.00;;;;;;6144561;23;19920;-88
2022/04/24 22:54:45;;;;;;;;;;;15.50;58.90;;;;;;6144323;23;19908;-88
2022/04/24 22:57:12;;;;;;;;;;;15.50;59.50;;;;;;6148281;23;20190;-87
2022/04/24 23:02:20;;;;;;;;;;;16.00;59.50;;;;;;6178370;23;20007;-89
2022/04/24 23:04:51;;;;;;;;;;;14.80;58.70;;;;;;6156866;23;19943;-89
2022/04/24 23:07:17;;;;;;;;;;;14.80;58.90;;;;;;6151473;23;20360;-88
2022/04/24 23:09:45;;;;;;;;;;;15.30;59.20;;;;;;6145167;23;19947;-89
2022/04/24 23:12:11;;;;;;;;;;;15.30;59.40;;;;;;6146541;23;19928;-89
2022/04/24 23:14:37;;;;;;;;;;;15.30;58.50;;;;;;6169576;23;20015;-87
2022/04/24 23:17:03;;;;;;;;;;;15.30;58.20;;;;;;6195982;23;19914;-90
2022/04/24 23:19:29;;;;;;;;;;;15.60;58.20;;;;;;6195840;23;19904;-87
2022/04/24 23:22:02;;;;;;;;;;;15.30;58.00;;;;;;6196533;23;19937;-89
2022/04/24 23:24:31;;;;;;;;;;;15.30;59.50;;;;;;6170000;23;19892;-88
2022/04/24 23:27:12;;;;;;;;;;;15.30;58.30;;;;;;6189492;23;19931;-88
2022/04/24 23:29:43;;;;;;;;;;;15.30;58.10;;;;;;6174690;23;20312;-87
2022/04/24 23:32:11;;;;;;;;;;;15.30;58.50;;;;;;6177670;23;20533;-88
2022/04/24 23:34:44;;;;;;;;;;;15.30;58.50;;;;;;6177320;23;19915;-86
2022/04/24 23:37:25;;;;;;;;;;;15.30;58.60;;;;;;6174517;23;19912;-88
2022/04/24 23:39:51;;;;;;;;;;;15.20;58.50;;;;;;6152037;23;19905;-86
2022/04/24 23:42:16;;;;;;;;;;;15.20;59.00;;;;;;6175744;23;19916;-87
2022/04/24 23:44:42;;;;;;;;;;;15.10;59.10;;;;;;6149308;23;19916;-86
2022/04/24 23:47:08;;;;;;;;;;;14.90;59.30;;;;;;6151215;23;19919;-88
2022/04/24 23:49:33;;;;;;;;;;;14.80;59.70;;;;;;6175206;23;19927;-86
2022/04/24 23:52:08;;;;;;;;;;;15.00;61.70;;;;;;6176216;23;20145;-88
2022/04/24 23:54:33;;;;;;;;;;;15.20;59.50;;;;;;6175692;23;19935;-89
2022/04/24 23:56:59;;;;;;;;;;;14.80;60.10;;;;;;6148877;23;19925;-87
2022/04/24 23:59:40;;;;;;;;;;;14.80;60.60;;;;;;6174950;23;20182;-89
